Terminal Aerodrome Forecast
Issued by NWS

Home | Current Version | Previous Version | Text Only | Print | Product List | Glossary On
Versions: 1 2 3 4 5 6 7 8 9 10 11 12 13 14 15 16 17 18 19 20
000
FTUS41 KRLX 261700
TAFCKB
TAF
KCKB 261740Z 2618/2718 22007KT P6SM SCT050
     FM262200 22006KT P6SM BKN050
     FM270500 21004KT P6SM VCTS BKN040CB
     FM270800 21004KT 4SM BR VCTS BKN030CB
     FM271000 21005KT 3SM TSRA BR BKN025CB
     FM271500 20008KT 4SM TSRA BR BKN025CB=

USA.gov is the U.S. government's official web portal to all federal, state and local government web resources and services.